Time;durP1;ratioP1;P1;durP2;ratioP2;P2;SDS_P1;SDS_P2;PMS_P1;PMS_P2;Temp;Humidity;BMP_temperature;BMP_pressure;BME280_temperature;BME280_humidity;BME280_pressure;Samples;Min_cycle;Max_cycle;Signal;HPM_P1;HPM_P2
2022/06/08 00:01:39;;;;;;;4.37;3.97;;;18.30;95.10;;;18.66;63.72;94591.31;5079541;28;20447;-53
2022/06/08 00:04:07;;;;;;;4.40;4.10;;;18.30;95.20;;;18.64;63.46;94592.31;5077763;28;20470;-55
2022/06/08 00:06:34;;;;;;;5.07;4.60;;;18.30;95.30;;;18.62;63.34;94589.03;5075160;28;20450;-54
2022/06/08 00:09:02;;;;;;;7.93;4.03;;;18.30;95.40;;;18.60;63.63;94591.06;5076287;28;20486;-53
2022/06/08 00:11:29;;;;;;;3.83;3.50;;;18.20;95.30;;;18.57;63.26;94585.31;5077029;28;20475;-52
2022/06/08 00:13:56;;;;;;;5.53;3.63;;;18.20;95.10;;;18.51;63.46;94572.78;5072939;28;20459;-53
2022/06/08 00:16:24;;;;;;;4.73;4.20;;;18.20;95.00;;;18.46;63.07;94579.50;5073273;28;20478;-57
2022/06/08 00:18:52;;;;;;;4.83;4.43;;;18.10;95.00;;;18.42;63.21;94575.63;5073646;28;20458;-54
2022/06/08 00:21:20;;;;;;;6.30;4.13;;;18.10;95.00;;;18.36;63.35;94568.41;5074430;28;20474;-55
2022/06/08 00:23:47;;;;;;;4.70;4.30;;;18.00;95.10;;;18.33;63.17;94581.28;5073373;28;20458;-54
2022/06/08 00:26:15;;;;;;;4.87;3.93;;;18.00;95.20;;;18.28;63.29;94569.38;5073079;28;20475;-54
2022/06/08 00:28:42;;;;;;;5.40;4.27;;;18.00;95.30;;;18.24;63.09;94578.75;5073585;28;20501;-56
2022/06/08 00:31:10;;;;;;;5.23;3.03;;;17.90;95.10;;;18.20;63.33;94569.53;5074698;28;20474;-61
2022/06/08 00:33:38;;;;;;;7.43;3.90;;;17.90;95.60;;;18.16;63.33;94562.94;5071591;28;20490;-53
2022/06/08 00:36:08;;;;;;;7.83;4.10;;;17.80;95.20;;;18.09;63.68;94565.56;5072131;28;20481;-53
2022/06/08 00:38:36;;;;;;;5.87;3.27;;;17.80;95.20;;;18.05;63.69;94566.97;5069412;28;20532;-55
2022/06/08 00:41:14;;;;;;;5.77;4.03;;;17.80;95.50;;;18.02;63.44;94562.03;5069569;28;20527;-55
2022/06/08 00:43:41;;;;;;;3.50;3.27;;;17.70;95.50;;;17.98;63.59;94562.63;5072467;28;20520;-56
2022/06/08 00:46:09;;;;;;;9.97;3.70;;;17.70;95.50;;;17.95;64.18;94565.66;5067000;28;20490;-54
2022/06/08 00:48:40;;;;;;;4.10;3.77;;;17.60;95.60;;;17.91;64.31;94566.03;5074208;28;20555;-53
2022/06/08 00:51:08;;;;;;;3.97;3.47;;;17.60;95.60;;;17.88;64.29;94560.25;5084383;28;20461;-54
2022/06/08 00:53:38;;;;;;;4.20;3.90;;;17.60;95.80;;;17.85;64.13;94563.31;5077167;28;20478;-56
2022/06/08 00:56:08;;;;;;;9.83;3.67;;;17.50;95.90;;;17.82;64.56;94556.53;5079884;28;20482;-53
2022/06/08 00:58:36;;;;;;;5.10;4.03;;;17.50;96.00;;;17.79;64.63;94558.75;5072599;28;20537;-55
2022/06/08 01:01:03;;;;;;;6.03;3.20;;;17.50;96.00;;;17.77;64.38;94558.09;5076424;28;21116;-54
2022/06/08 01:03:31;;;;;;;4.13;3.73;;;17.40;96.20;;;17.74;64.68;94554.00;5079458;28;20458;-53
2022/06/08 01:05:59;;;;;;;4.57;4.17;;;17.40;96.30;;;17.72;64.89;94562.19;5076376;28;20997;-56
2022/06/08 01:08:31;;;;;;;3.40;3.20;;;17.40;96.30;;;17.70;64.71;94558.06;5077021;28;20490;-55
2022/06/08 01:11:01;;;;;;;4.40;3.67;;;17.40;96.30;;;17.69;65.01;94556.41;5071087;28;20597;-54
2022/06/08 01:13:29;;;;;;;5.77;4.17;;;17.40;96.40;;;17.66;64.93;94554.13;5075775;28;20971;-54
2022/06/08 01:15:56;;;;;;;3.67;3.37;;;17.30;96.50;;;17.65;65.13;94557.81;5077537;28;20503;-54
2022/06/08 01:18:23;;;;;;;6.17;4.33;;;17.30;96.70;;;17.63;65.11;94552.69;5071279;28;20821;-54
2022/06/08 01:20:53;;;;;;;73.47;5.90;;;17.30;96.60;;;17.61;65.26;94559.19;5072291;28;21067;-53
2022/06/08 01:23:22;;;;;;;4.30;3.90;;;17.30;96.90;;;17.60;65.40;94546.91;5074430;28;20466;-53
2022/06/08 01:26:08;;;;;;;10.27;4.40;;;17.30;96.90;;;17.59;66.13;94545.28;5071392;28;21015;-55
2022/06/08 01:28:41;;;;;;;4.37;4.07;;;17.20;97.00;;;17.56;65.42;94549.94;5071068;28;20491;-56
2022/06/08 01:31:13;;;;;;;7.80;4.87;;;17.20;97.10;;;17.57;65.88;94548.13;5072133;28;20478;-52
2022/06/08 01:34:01;;;;;;;4.93;4.57;;;17.20;96.90;;;17.58;66.01;94543.63;5069756;28;20463;-54
2022/06/08 01:36:57;;;;;;;5.03;4.60;;;17.20;97.20;;;17.56;65.72;94543.81;5071759;28;20470;-57
2022/06/08 01:39:34;;;;;;;4.20;3.87;;;17.20;97.20;;;17.54;66.21;94554.66;5068439;28;20453;-54
2022/06/08 01:42:15;;;;;;;4.43;4.03;;;17.20;97.20;;;17.53;66.30;94547.69;5070007;28;20487;-55
2022/06/08 01:48:04;;;;;;;6.73;3.60;;;17.20;97.20;;;17.52;66.10;94556.69;5073676;28;20530;-54
2022/06/08 01:50:37;;;;;;;4.20;3.90;;;17.20;97.30;;;17.52;65.79;94554.03;5070655;28;20478;-53
2022/06/08 01:53:07;;;;;;;4.00;3.80;;;17.20;97.50;;;17.51;66.22;94552.38;5079450;28;20450;-55
2022/06/08 01:55:42;;;;;;;4.77;3.70;;;17.20;97.50;;;17.49;65.97;94551.75;5076020;28;20569;-54
2022/06/08 01:58:13;;;;;;;9.60;3.73;;;17.20;97.30;;;17.50;66.07;94556.03;5079661;28;20466;-53
2022/06/08 02:00:44;;;;;;;3.90;3.60;;;17.20;97.30;;;17.49;65.70;94558.88;5076280;28;20494;-55
2022/06/08 02:03:18;;;;;;;3.80;3.50;;;17.20;97.30;;;17.45;65.83;94553.13;5080239;28;20526;-53
2022/06/08 02:05:53;;;;;;;3.70;3.37;;;17.10;97.20;;;17.41;65.73;94548.38;5078458;28;20481;-54
2022/06/08 02:08:24;;;;;;;9.13;3.53;;;17.10;97.10;;;17.40;65.47;94547.56;5071494;28;20569;-53
2022/06/08 02:10:56;;;;;;;3.77;3.33;;;17.10;97.00;;;17.34;65.30;94538.50;5072851;28;20525;-54
2022/06/08 02:13:27;;;;;;;3.80;3.60;;;17.00;96.90;;;17.31;65.59;94541.53;5073547;28;20457;-53
2022/06/08 02:15:58;;;;;;;8.20;3.77;;;17.00;97.00;;;17.29;65.51;94537.41;5072967;28;20482;-54
2022/06/08 02:18:29;;;;;;;4.93;4.13;;;17.00;97.10;;;17.27;65.84;94536.78;5069830;28;20451;-56
2022/06/08 02:20:59;;;;;;;3.77;3.40;;;17.00;97.20;;;17.26;65.98;94540.44;5067688;28;20477;-55
2022/06/08 02:23:28;;;;;;;3.87;3.33;;;16.90;97.20;;;17.24;65.95;94537.97;5070939;28;20832;-56
2022/06/08 02:25:58;;;;;;;5.50;3.57;;;16.90;97.40;;;17.22;66.00;94533.88;5072134;28;20857;-53
2022/06/08 02:28:28;;;;;;;8.63;3.80;;;16.90;97.40;;;17.19;65.80;94530.56;5070819;28;20993;-53
2022/06/08 02:30:58;;;;;;;4.03;3.70;;;16.90;97.40;;;17.18;66.04;94538.75;5072324;28;20486;-53
2022/06/08 02:36:15;;;;;;;6.93;4.20;;;16.90;97.40;;;17.14;65.59;94535.66;5071352;28;20473;-56
2022/06/08 02:38:46;;;;;;;4.40;4.10;;;16.80;97.30;;;17.11;66.08;94538.69;5071979;28;20462;-53
2022/06/08 02:41:15;;;;;;;3.17;3.07;;;16.80;97.40;;;17.10;66.05;94530.91;5068441;28;20486;-56
2022/06/08 02:43:45;;;;;;;5.90;4.10;;;16.80;97.30;;;17.08;66.16;94528.44;5072703;28;20468;-55
2022/06/08 02:46:17;;;;;;;4.17;3.70;;;16.80;97.50;;;17.08;66.21;94533.75;5076189;28;20905;-56
2022/06/08 02:48:45;;;;;;;6.57;3.73;;;16.80;97.80;;;17.07;66.27;94532.13;5069558;28;20496;-55
2022/06/08 02:51:12;;;;;;;5.03;4.00;;;16.70;97.70;;;17.07;66.04;94542.75;5072098;28;20474;-53
2022/06/08 02:53:58;;;;;;;6.63;4.07;;;16.70;97.70;;;17.06;66.39;94540.28;5076084;28;20454;-53
2022/06/08 02:56:35;;;;;;;9.13;4.20;;;16.70;97.70;;;17.03;66.39;94549.44;5080563;28;20482;-53
2022/06/08 02:59:06;;;;;;;4.70;4.30;;;16.70;97.70;;;17.02;66.42;94550.44;5078686;28;20536;-55
2022/06/08 03:01:37;;;;;;;7.33;4.17;;;16.70;97.70;;;17.01;66.76;94552.28;5073928;28;20476;-54
2022/06/08 03:04:09;;;;;;;6.30;3.77;;;16.70;97.80;;;17.01;66.41;94565.56;5077147;28;20449;-53
2022/06/08 03:06:40;;;;;;;7.03;4.57;;;16.70;97.80;;;17.00;66.58;94558.59;5080348;28;20844;-56
2022/06/08 03:09:08;;;;;;;3.93;3.73;;;16.70;98.00;;;17.01;66.51;94562.91;5078895;28;20475;-54
2022/06/08 03:11:38;;;;;;;10.93;4.03;;;16.70;98.10;;;17.00;66.82;94569.22;5076900;28;20454;-59
2022/06/08 03:14:08;;;;;;;7.23;4.30;;;16.70;98.10;;;17.01;67.04;94565.56;5081326;28;20481;-55
2022/06/08 03:16:39;;;;;;;7.00;4.03;;;16.70;98.20;;;17.03;67.05;94563.53;5074969;28;20537;-55
2022/06/08 03:19:06;;;;;;;6.57;3.50;;;16.70;98.20;;;17.03;66.75;94568.84;5074524;28;20454;-56
2022/06/08 03:21:34;;;;;;;5.10;3.90;;;16.70;98.20;;;17.04;67.13;94567.03;5074751;28;20461;-56
2022/06/08 03:24:01;;;;;;;4.10;3.77;;;16.80;98.30;;;17.07;66.73;94564.00;5076730;28;20459;-53
2022/06/08 03:26:35;;;;;;;8.67;4.00;;;16.80;98.30;;;17.07;67.07;94561.34;5074065;28;20487;-55
2022/06/08 03:29:04;;;;;;;7.50;4.67;;;16.80;98.30;;;17.10;66.71;94565.44;5076602;28;20485;-54
2022/06/08 03:31:32;;;;;;;5.60;3.97;;;16.80;98.30;;;17.12;66.50;94563.44;5065473;28;20971;-54
2022/06/08 03:33:59;;;;;;;13.57;5.10;;;16.80;98.30;;;17.13;66.52;94567.72;5076091;28;20848;-56
2022/06/08 03:36:26;;;;;;;7.20;5.07;;;16.80;98.20;;;17.15;66.49;94569.19;5071917;28;20474;-55
2022/06/08 03:38:53;;;;;;;5.17;4.53;;;16.80;98.00;;;17.14;66.27;94564.88;5074439;28;20466;-52
2022/06/08 03:41:21;;;;;;;8.63;4.40;;;16.80;97.80;;;17.15;66.26;94571.84;5072218;28;20489;-56
2022/06/08 03:43:48;;;;;;;6.20;4.87;;;16.90;97.80;;;17.17;66.16;94566.34;5071249;28;20867;-55
2022/06/08 03:46:17;;;;;;;14.50;4.93;;;16.90;97.80;;;17.16;66.06;94560.19;5071695;28;20487;-54
2022/06/08 03:48:44;;;;;;;6.20;4.83;;;16.90;97.80;;;17.14;66.22;94562.22;5069208;28;20510;-54
2022/06/08 03:51:12;;;;;;;6.20;4.10;;;16.90;97.80;;;17.16;66.14;94557.53;5070131;28;21017;-56
2022/06/08 03:53:43;;;;;;;9.63;4.50;;;16.80;97.80;;;17.20;65.84;94568.63;5067553;28;20462;-53
2022/06/08 03:56:10;;;;;;;14.00;5.43;;;16.90;97.80;;;17.27;66.30;94563.38;5078867;28;20465;-56
2022/06/08 03:58:39;;;;;;;5.77;4.30;;;16.90;97.80;;;17.31;66.03;94565.47;5080064;28;20457;-52
2022/06/08 04:01:06;;;;;;;8.20;4.27;;;17.00;97.80;;;17.36;65.85;94568.38;5070247;28;21048;-54
2022/06/08 04:03:35;;;;;;;21.83;4.83;;;17.00;97.80;;;17.45;65.69;94561.09;5080693;28;20940;-53
2022/06/08 04:06:03;;;;;;;13.33;4.47;;;17.10;97.80;;;17.52;65.60;94569.13;5078914;28;20470;-53
2022/06/08 04:08:31;;;;;;;10.30;5.07;;;17.20;97.70;;;17.59;65.16;94564.72;5081161;28;20489;-53
2022/06/08 04:10:59;;;;;;;14.77;6.13;;;17.20;97.40;;;17.65;64.98;94565.78;5077073;28;20923;-54
2022/06/08 04:13:26;;;;;;;6.30;5.50;;;17.30;97.40;;;17.68;65.15;94560.09;5076626;28;20822;-55
2022/06/08 04:15:53;;;;;;;7.50;5.00;;;17.40;97.20;;;17.70;65.30;94563.38;5076227;28;20477;-55
2022/06/08 04:18:23;;;;;;;5.23;4.73;;;17.40;97.20;;;17.72;65.14;94564.00;5069891;28;20451;-55
2022/06/08 04:20:54;;;;;;;6.27;5.57;;;17.40;97.30;;;17.75;64.81;94558.28;5077855;28;20482;-56
2022/06/08 04:23:22;;;;;;;9.90;5.33;;;17.40;97.20;;;17.76;65.34;94549.31;5074224;28;20447;-54
2022/06/08 04:25:50;;;;;;;8.40;5.20;;;17.50;97.10;;;17.79;64.85;94540.13;5068389;28;20574;-55
2022/06/08 04:28:18;;;;;;;8.67;5.00;;;17.50;97.20;;;17.83;64.86;94538.72;5074622;28;20982;-56
2022/06/08 04:30:45;;;;;;;9.07;5.90;;;17.50;97.20;;;17.88;65.05;94538.97;5074539;28;20556;-56
2022/06/08 04:33:13;;;;;;;6.97;5.00;;;17.50;97.30;;;17.96;65.01;94546.03;5068963;28;20450;-55
2022/06/08 04:35:40;;;;;;;10.13;5.10;;;17.60;97.40;;;18.01;65.08;94548.91;5072622;28;20470;-56
2022/06/08 04:38:09;;;;;;;12.00;4.90;;;17.60;97.10;;;18.05;64.89;94555.50;5072059;28;21299;-54
2022/06/08 04:40:36;;;;;;;11.57;6.00;;;17.70;97.00;;;18.08;64.30;94549.81;5068468;28;20467;-55
2022/06/08 04:43:03;;;;;;;10.13;6.80;;;17.70;96.90;;;18.13;64.72;94555.34;5069887;28;20554;-55
2022/06/08 04:45:32;;;;;;;16.33;5.80;;;17.70;97.00;;;18.23;64.54;94555.84;5067362;28;20824;-57
2022/06/08 04:47:59;;;;;;;8.97;5.23;;;17.90;97.20;;;18.35;65.14;94552.63;5070091;28;20457;-54
2022/06/08 04:50:26;;;;;;;4.70;4.33;;;17.90;97.20;;;18.47;64.09;94553.72;5065064;28;20567;-54
2022/06/08 04:52:54;;;;;;;5.50;4.83;;;18.10;97.00;;;18.57;64.30;94553.34;5068195;28;20462;-54
2022/06/08 04:55:23;;;;;;;7.53;4.80;;;18.20;96.70;;;18.63;63.22;94558.72;5065415;28;20478;-56
2022/06/08 04:57:50;;;;;;;7.70;4.57;;;18.20;96.30;;;18.69;63.35;94559.78;5068111;28;20902;-54
2022/06/08 05:00:20;;;;;;;3.33;3.07;;;18.30;96.10;;;18.75;63.51;94560.84;5082939;28;20469;-55
2022/06/08 05:02:48;;;;;;;10.70;4.13;;;18.40;96.10;;;18.83;63.23;94565.97;5080427;28;20451;-55
2022/06/08 05:05:19;;;;;;;14.63;4.83;;;18.40;95.80;;;18.89;62.38;94557.22;5081658;28;20501;-55
2022/06/08 05:07:46;;;;;;;12.27;4.30;;;18.50;95.70;;;18.94;61.84;94562.78;5074070;28;20451;-54
2022/06/08 05:10:13;;;;;;;3.70;3.23;;;18.60;95.30;;;18.98;62.09;94556.03;5078092;28;20501;-52
2022/06/08 05:12:42;;;;;;;7.10;3.67;;;18.60;95.00;;;19.04;61.79;94558.91;5077838;28;20450;-55
2022/06/08 05:15:12;;;;;;;5.57;3.50;;;18.70;94.70;;;19.10;61.01;94545.63;5080824;28;20471;-53
2022/06/08 05:17:39;;;;;;;6.33;3.00;;;18.70;94.50;;;19.24;60.37;94553.63;5074176;28;20446;-54
2022/06/08 05:20:08;;;;;;;3.07;2.77;;;18.80;94.20;;;19.39;60.38;94556.97;5076688;28;20464;-54
2022/06/08 05:22:37;;;;;;;13.50;3.30;;;18.90;93.80;;;19.55;60.15;94550.44;5076265;28;20442;-54
2022/06/08 05:25:05;;;;;;;7.10;3.10;;;19.10;93.70;;;19.74;59.65;94553.34;5072223;28;20467;-55
2022/06/08 05:27:32;;;;;;;8.13;3.63;;;19.30;93.50;;;19.95;59.37;94561.13;5076432;28;20454;-55
2022/06/08 05:30:01;;;;;;;10.67;3.93;;;19.50;93.60;;;20.17;59.08;94561.78;5074930;28;20806;-55
2022/06/08 05:32:28;;;;;;;11.50;3.77;;;19.70;93.30;;;20.42;58.50;94556.59;5071612;28;20457;-53
2022/06/08 05:34:56;;;;;;;8.33;3.80;;;19.80;93.10;;;20.68;58.33;94560.25;5070399;28;21064;-54
2022/06/08 05:37:23;;;;;;;4.07;3.77;;;20.10;92.80;;;20.93;57.73;94562.25;5073517;28;20492;-52
2022/06/08 05:39:50;;;;;;;14.17;3.90;;;20.40;92.40;;;21.17;57.30;94563.34;5069387;28;20474;-56
2022/06/08 05:42:18;;;;;;;6.60;3.57;;;20.60;91.90;;;21.40;56.49;94568.16;5071998;28;20466;-55
2022/06/08 05:44:45;;;;;;;3.67;3.37;;;20.80;91.40;;;21.64;56.10;94563.94;5069440;28;20907;-54
2022/06/08 05:47:14;;;;;;;6.00;3.77;;;21.10;91.20;;;21.90;56.09;94574.69;5069226;28;21062;-57
2022/06/08 05:49:41;;;;;;;6.27;3.73;;;21.30;90.90;;;22.14;55.38;94571.19;5064180;28;20495;-54
2022/06/08 05:52:09;;;;;;;11.53;4.37;;;21.50;90.40;;;22.42;54.87;94575.31;5063638;28;20443;-54
2022/06/08 05:54:36;;;;;;;4.57;4.27;;;21.80;89.90;;;22.68;54.34;94576.91;5067294;28;20487;-55
2022/06/08 05:57:05;;;;;;;3.87;3.60;;;22.10;89.60;;;22.90;53.68;94571.91;5066908;28;20455;-54
2022/06/08 05:59:32;;;;;;;5.33;3.70;;;22.30;88.60;;;23.12;53.98;94568.78;5066015;28;20471;-55
2022/06/08 06:01:59;;;;;;;11.57;3.90;;;22.50;87.90;;;23.35;52.67;94562.72;5077569;28;20454;-56
2022/06/08 06:04:28;;;;;;;9.70;4.60;;;22.70;86.80;;;23.58;52.92;94558.50;5068490;28;20832;-54
2022/06/08 06:06:56;;;;;;;7.50;3.67;;;22.90;85.80;;;23.79;52.44;94552.56;5080548;28;20457;-54
2022/06/08 06:09:24;;;;;;;7.33;3.40;;;23.20;84.60;;;24.02;52.07;94553.72;5079785;28;20898;-56
2022/06/08 06:11:51;;;;;;;5.17;4.67;;;23.40;83.80;;;24.28;51.15;94560.53;5078831;28;20505;-56
2022/06/08 06:14:18;;;;;;;4.80;3.63;;;23.60;83.10;;;24.49;50.42;94545.69;5079850;28;20458;-55
2022/06/08 06:16:46;;;;;;;9.23;4.13;;;23.80;81.70;;;24.64;50.57;94547.09;5075649;28;20447;-54
2022/06/08 06:19:13;;;;;;;10.17;4.83;;;24.00;80.90;;;24.72;49.67;94554.00;5076955;28;20442;-55
2022/06/08 06:21:42;;;;;;;6.50;4.00;;;24.10;79.90;;;24.72;49.96;94545.91;5080233;28;20464;-55
2022/06/08 06:24:09;;;;;;;8.77;3.80;;;24.20;79.30;;;24.72;49.98;94548.59;5077791;28;20458;-57
2022/06/08 06:26:37;;;;;;;4.30;3.77;;;24.20;79.20;;;24.72;49.56;94546.72;5079942;28;20864;-56
2022/06/08 06:29:04;;;;;;;7.90;4.20;;;24.20;78.70;;;24.71;50.13;94537.03;5076585;28;20469;-56
2022/06/08 06:31:37;;;;;;;8.37;4.00;;;24.20;78.20;;;24.73;49.60;94542.19;5074896;28;20449;-56
2022/06/08 06:34:05;;;;;;;7.83;3.77;;;24.20;77.70;;;24.80;49.89;94541.00;5074784;28;20455;-57
2022/06/08 06:36:33;;;;;;;5.13;3.60;;;24.20;77.70;;;24.98;49.38;94533.81;5076092;28;20523;-54
2022/06/08 06:39:01;;;;;;;7.30;3.57;;;24.40;77.90;;;25.17;49.28;94532.56;5074566;28;20454;-55
2022/06/08 06:41:29;;;;;;;12.77;4.50;;;24.50;77.80;;;25.40;48.52;94536.28;5071126;28;20553;-55
2022/06/08 06:43:56;;;;;;;7.00;4.00;;;24.70;76.60;;;25.63;47.98;94526.47;5074025;28;20458;-54
2022/06/08 06:46:24;;;;;;;4.70;4.00;;;24.90;75.60;;;25.84;47.69;94522.22;5069740;28;20864;-56
2022/06/08 06:48:51;;;;;;;18.03;4.67;;;25.10;74.20;;;26.03;46.51;94515.59;5072205;28;20461;-54
2022/06/08 06:51:18;;;;;;;5.20;4.40;;;25.30;72.20;;;26.21;46.42;94513.69;5072004;28;20590;-54
2022/06/08 06:53:46;;;;;;;8.23;3.63;;;25.50;72.00;;;26.34;46.36;94521.44;5066925;28;20486;-54
2022/06/08 06:56:15;;;;;;;7.83;3.70;;;25.70;70.80;;;26.50;45.83;94522.47;5070394;28;20473;-54
2022/06/08 06:58:42;;;;;;;7.80;3.80;;;25.80;69.30;;;26.63;45.75;94521.28;5069232;28;20882;-55
2022/06/08 07:01:11;;;;;;;6.73;3.80;;;26.00;69.20;;;26.77;45.13;94522.63;5068134;28;20480;-55
2022/06/08 07:03:38;;;;;;;15.63;3.20;;;26.10;68.10;;;26.95;45.40;94516.06;5071757;28;20445;-56
2022/06/08 07:06:06;;;;;;;4.17;3.33;;;26.30;67.70;;;27.17;44.75;94518.78;5084628;28;20469;-55
2022/06/08 07:08:34;;;;;;;5.83;3.17;;;26.50;66.40;;;27.36;44.45;94518.50;5082245;28;20477;-55
2022/06/08 07:13:47;;;;;;;7.33;3.57;;;26.80;65.30;;;27.82;43.65;94528.91;5082280;28;20430;-55
2022/06/08 07:16:15;;;;;;;6.77;3.00;;;27.10;64.10;;;28.02;43.36;94514.78;5080484;28;20544;-54
2022/06/08 07:18:42;;;;;;;4.87;3.53;;;27.30;62.80;;;28.22;43.01;94523.06;5074110;28;20449;-57
2022/06/08 07:21:11;;;;;;;7.30;3.70;;;27.50;62.30;;;28.41;42.34;94522.66;5075399;28;20506;-54
2022/06/08 07:23:38;;;;;;;4.67;3.63;;;27.70;61.30;;;28.64;42.74;94520.66;5079609;28;20815;-56
2022/06/08 07:26:05;;;;;;;11.30;3.70;;;27.90;61.20;;;28.87;42.39;94527.56;5077933;28;20474;-54
2022/06/08 07:28:33;;;;;;;13.43;3.50;;;28.10;61.00;;;29.07;41.22;94530.34;5076407;28;20859;-54
2022/06/08 07:31:02;;;;;;;13.30;3.80;;;28.30;59.30;;;29.29;41.57;94529.38;5076750;28;20572;-54
2022/06/08 07:33:29;;;;;;;7.30;4.13;;;28.50;59.10;;;29.39;40.68;94529.41;5075830;28;20449;-55
2022/06/08 07:35:57;;;;;;;4.30;4.00;;;28.70;58.20;;;29.39;40.30;94525.88;5074515;28;20469;-55
2022/06/08 07:38:25;;;;;;;9.10;4.30;;;28.80;57.30;;;29.28;40.72;94527.75;5076959;28;20919;-54
2022/06/08 07:40:52;;;;;;;10.83;4.80;;;28.60;56.70;;;29.16;40.17;94536.09;5074014;28;20478;-55
2022/06/08 07:43:20;;;;;;;6.77;5.30;;;28.50;56.30;;;29.03;40.67;94537.38;5075176;28;20497;-54
2022/06/08 07:45:48;;;;;;;11.30;3.93;;;28.40;56.30;;;28.93;40.75;94531.91;5069866;28;20465;-55
2022/06/08 07:51:01;;;;;;;4.43;3.80;;;28.30;56.10;;;28.97;39.89;94533.84;5070844;28;20569;-55
2022/06/08 07:53:29;;;;;;;6.03;3.73;;;28.40;55.80;;;29.13;40.04;94531.19;5067762;28;20460;-54
2022/06/08 07:55:56;;;;;;;5.47;4.37;;;28.40;56.10;;;29.33;40.43;94528.59;5066484;28;20505;-54
2022/06/08 07:58:23;;;;;;;21.90;4.30;;;28.60;56.00;;;29.54;40.58;94528.63;5065996;28;20798;-56
2022/06/08 08:00:51;;;;;;;9.10;3.80;;;28.80;56.00;;;29.70;39.71;94524.06;5069090;28;20470;-56
2022/06/08 08:03:20;;;;;;;4.80;3.63;;;29.00;55.70;;;29.86;39.63;94530.34;5066967;28;20486;-55
2022/06/08 08:05:48;;;;;;;13.40;3.47;;;29.10;55.10;;;30.02;38.87;94518.44;5067113;28;20477;-54
2022/06/08 08:08:17;;;;;;;16.13;3.83;;;29.30;54.30;;;30.20;39.01;94517.06;5081386;28;20530;-54
2022/06/08 08:10:44;;;;;;;10.53;3.70;;;29.50;54.20;;;30.41;38.00;94522.50;5077174;28;20652;-55
2022/06/08 08:13:12;;;;;;;16.57;4.10;;;29.60;53.00;;;30.55;37.52;94523.59;5082449;28;20477;-55
2022/06/08 08:15:40;;;;;;;9.00;3.80;;;29.80;52.70;;;30.52;37.79;94523.28;5082958;28;20223;-55
2022/06/08 08:18:08;;;;;;;8.43;4.57;;;29.80;51.00;;;30.31;37.60;94517.88;5074829;28;20515;-54
2022/06/08 08:20:37;;;;;;;5.20;3.77;;;29.70;51.50;;;30.09;36.98;94503.81;5079116;28;20478;-54
2022/06/08 08:23:04;;;;;;;10.80;4.00;;;29.60;50.60;;;29.92;37.45;94509.50;5076740;28;20575;-54
2022/06/08 08:25:31;;;;;;;3.63;3.43;;;29.40;50.40;;;29.81;37.82;94498.63;5074577;28;20805;-54
2022/06/08 08:27:59;;;;;;;7.70;4.50;;;29.30;51.20;;;29.80;37.09;94490.75;5077895;28;21142;-56
2022/06/08 08:30:29;;;;;;;12.27;3.73;;;29.30;51.00;;;29.71;38.10;94497.78;5077372;28;20505;-56
2022/06/08 08:32:56;;;;;;;4.70;2.87;;;29.20;51.20;;;29.81;37.83;94489.69;5062105;28;20453;-56
2022/06/08 08:35:24;;;;;;;3.67;2.80;;;29.20;51.70;;;30.04;38.22;94491.84;5076664;28;20246;-57
2022/06/08 08:37:53;;;;;;;3.67;2.93;;;29.30;51.80;;;30.36;37.93;94490.72;5069337;28;20445;-56
2022/06/08 08:40:35;;;;;;;9.20;3.40;;;29.60;51.60;;;30.70;34.83;94490.13;5074691;28;20355;-55
2022/06/08 08:43:02;;;;;;;3.53;2.83;;;29.90;49.00;;;30.97;36.72;94486.31;5073502;28;20438;-55
2022/06/08 08:45:32;;;;;;;13.40;2.50;;;30.20;50.40;;;31.19;35.95;94490.56;5070582;28;20891;-57
2022/06/08 08:48:04;;;;;;;12.80;4.10;;;30.50;49.60;;;31.36;35.44;94487.47;5073443;28;20204;-56
2022/06/08 08:50:34;;;;;;;11.97;3.17;;;30.70;49.20;;;31.37;35.65;94479.03;5073529;28;20239;-55
2022/06/08 08:53:08;;;;;;;8.63;4.07;;;30.70;48.20;;;31.39;35.30;94474.13;5071017;28;20254;-55
2022/06/08 08:55:40;;;;;;;9.80;3.00;;;30.70;48.50;;;31.48;35.64;94479.81;5069002;28;20258;-57
2022/06/08 08:58:12;;;;;;;16.83;4.03;;;30.80;48.20;;;31.60;35.32;94484.91;5068943;28;20200;-56
2022/06/08 09:00:42;;;;;;;5.43;3.00;;;30.90;48.00;;;31.75;34.25;94481.28;5068646;28;20591;-54
2022/06/08 09:03:30;;;;;;;7.00;3.00;;;31.00;46.50;;;31.95;33.40;94488.47;5064378;28;20233;-54
2022/06/08 09:05:59;;;;;;;4.07;3.00;;;31.20;45.90;;;32.11;34.05;94475.56;5062983;28;20641;-54
2022/06/08 09:08:28;;;;;;;3.00;2.53;;;31.40;46.00;;;32.28;34.05;94467.00;5065986;28;20208;-54
2022/06/08 09:10:58;;;;;;;3.00;2.80;;;31.50;46.30;;;32.48;33.93;94463.25;5080645;28;20774;-57
2022/06/08 09:13:32;;;;;;;4.07;2.77;;;31.80;46.30;;;32.67;33.90;94461.44;5077031;28;20703;-55
2022/06/08 09:16:00;;;;;;;3.80;3.40;;;31.90;46.30;;;32.73;33.19;94464.91;5075359;28;20231;-57
2022/06/08 09:18:34;;;;;;;7.23;2.80;;;32.00;45.30;;;32.62;32.87;94464.19;5077664;28;20199;-55
2022/06/08 09:21:18;;;;;;;8.15;2.78;;;32.00;45.00;;;32.56;33.38;94459.88;5075646;28;20319;-57
2022/06/08 09:23:47;;;;;;;5.80;2.58;;;32.00;45.10;;;32.67;32.06;94466.06;5074017;28;20601;-57
2022/06/08 09:26:16;;;;;;;2.85;2.65;;;32.00;44.00;;;32.79;32.77;94457.50;5078749;28;20220;-55
2022/06/08 09:28:44;;;;;;;4.43;3.20;;;32.10;44.30;;;32.92;32.76;94453.25;5078339;28;20230;-55
2022/06/08 09:31:25;;;;;;;5.97;2.80;;;32.20;44.60;;;33.05;31.82;94449.81;5075531;28;20238;-54
2022/06/08 09:34:08;;;;;;;3.80;2.30;;;32.30;43.00;;;33.07;31.44;94447.63;5076806;28;20208;-54
2022/06/08 09:36:36;;;;;;;3.70;2.35;;;32.40;43.70;;;33.10;32.33;94457.94;5073987;28;20200;-55
2022/06/08 09:39:05;;;;;;;10.73;3.22;;;32.40;43.40;;;33.04;32.03;94445.47;5074786;28;20200;-57
2022/06/08 09:41:36;;;;;;;5.53;2.30;;;32.40;43.20;;;32.88;31.59;94442.13;5074402;28;20210;-56
2022/06/08 09:44:20;;;;;;;5.75;2.17;;;32.20;42.60;;;32.76;30.89;94434.38;5073959;28;20202;-55
2022/06/08 09:53:01;;;;;;;3.58;1.85;;;31.90;42.40;;;32.41;29.77;94422.75;5074952;28;20194;-57
2022/06/08 09:55:40;;;;;;;8.52;2.22;;;31.80;40.50;;;32.32;30.73;94433.47;5076720;28;20598;-56
2022/06/08 09:58:21;;;;;;;2.53;2.20;;;31.60;42.00;;;32.32;30.99;94427.22;5071963;28;20212;-55
2022/06/08 10:00:51;;;;;;;6.53;1.70;;;31.60;42.10;;;32.34;30.48;94419.56;5069786;28;20238;-56
2022/06/08 10:03:39;;;;;;;3.15;1.80;;;31.60;41.50;;;32.31;29.68;94422.88;5070648;28;20192;-55
2022/06/08 10:06:13;;;;;;;1.70;1.60;;;31.60;40.30;;;32.34;30.32;94416.84;5069211;28;20228;-54
2022/06/08 10:08:53;;;;;;;3.00;1.95;;;31.70;40.90;;;32.40;29.61;94406.72;5057587;28;20629;-54
2022/06/08 10:11:39;;;;;;;3.80;2.25;;;31.70;40.40;;;32.41;30.92;94409.16;5069523;28;20236;-56
2022/06/08 10:14:17;;;;;;;4.47;1.90;;;31.70;40.70;;;32.14;30.49;94410.50;5078871;28;20207;-56
2022/06/08 10:16:48;;;;;;;5.93;1.83;;;31.60;40.30;;;32.03;30.23;94411.69;5082150;28;20196;-54
2022/06/08 10:19:21;;;;;;;1.92;1.45;;;31.40;40.40;;;32.04;30.06;94405.16;5083676;28;20233;-57
2022/06/08 10:21:48;;;;;;;6.03;2.40;;;31.40;40.20;;;32.05;30.58;94412.19;5076420;28;20253;-56
2022/06/08 10:24:18;;;;;;;7.00;1.73;;;31.40;40.20;;;32.17;30.35;94409.94;5082225;28;20222;-54
2022/06/08 10:26:50;;;;;;;1.70;1.60;;;31.40;40.20;;;32.27;30.04;94409.03;5082642;28;20207;-55
2022/06/08 10:29:21;;;;;;;5.93;2.00;;;31.50;40.70;;;32.15;30.71;94401.25;5080774;28;20691;-55
2022/06/08 10:31:51;;;;;;;1.88;1.23;;;31.50;40.90;;;31.85;30.14;94398.78;5081905;28;20226;-58
2022/06/08 10:34:20;;;;;;;1.50;1.40;;;31.30;40.20;;;31.60;30.18;94398.72;5080485;28;20262;-54
2022/06/08 10:36:49;;;;;;;5.82;2.08;;;31.10;40.70;;;31.50;30.44;94397.97;5077169;28;20570;-56
2022/06/08 10:39:17;;;;;;;1.73;1.50;;;31.00;40.00;;;31.42;30.71;94394.75;5078215;28;20211;-56
2022/06/08 10:44:38;;;;;;;2.35;2.00;;;30.80;40.90;;;31.44;30.94;94387.09;5077746;28;20226;-55
2022/06/08 10:47:18;;;;;;;3.25;1.33;;;30.80;41.30;;;31.60;31.61;94389.75;5075192;28;20261;-54
2022/06/08 10:49:51;;;;;;;1.60;1.50;;;30.90;41.90;;;31.71;30.32;94380.41;5076010;28;20226;-54